sensor_id;sensor_type;location;lat;lon;timestamp;temperature;humidity
22526;DHT22;11429;50.842;4.386;2023-06-10T00:00:41;23.90;99.50
22526;DHT22;11429;50.842;4.386;2023-06-10T00:03:07;23.90;99.30
22526;DHT22;11429;50.842;4.386;2023-06-10T00:05:34;23.90;99.30
22526;DHT22;11429;50.842;4.386;2023-06-10T00:08:01;23.90;99.40
22526;DHT22;11429;50.842;4.386;2023-06-10T00:10:33;23.70;99.50
22526;DHT22;11429;50.842;4.386;2023-06-10T00:13:00;23.70;99.70
22526;DHT22;11429;50.842;4.386;2023-06-10T00:15:26;23.60;99.70
22526;DHT22;11429;50.842;4.386;2023-06-10T00:17:52;23.50;99.90
22526;DHT22;11429;50.842;4.386;2023-06-10T00:20:18;23.50;99.90
22526;DHT22;11429;50.842;4.386;2023-06-10T00:22:44;23.50;99.90
22526;DHT22;11429;50.842;4.386;2023-06-10T00:25:11;23.50;99.90
22526;DHT22;11429;50.842;4.386;2023-06-10T00:27:36;23.40;99.90
22526;DHT22;11429;50.842;4.386;2023-06-10T00:30:06;23.50;99.90
22526;DHT22;11429;50.842;4.386;2023-06-10T00:32:36;23.50;99.90
22526;DHT22;11429;50.842;4.386;2023-06-10T00:35:03;23.50;99.90
22526;DHT22;11429;50.842;4.386;2023-06-10T00:37:29;23.40;99.90
22526;DHT22;11429;50.842;4.386;2023-06-10T00:39:55;23.40;99.90
22526;DHT22;11429;50.842;4.386;2023-06-10T00:42:21;23.40;99.90
22526;DHT22;11429;50.842;4.386;2023-06-10T00:44:53;23.30;99.90
22526;DHT22;11429;50.842;4.386;2023-06-10T00:47:20;23.20;99.90
22526;DHT22;11429;50.842;4.386;2023-06-10T00:49:46;23.10;99.90
22526;DHT22;11429;50.842;4.386;2023-06-10T00:52:14;22.90;99.90
22526;DHT22;11429;50.842;4.386;2023-06-10T00:54:41;23.20;99.90
22526;DHT22;11429;50.842;4.386;2023-06-10T00:57:06;23.20;99.90
22526;DHT22;11429;50.842;4.386;2023-06-10T00:59:32;23.20;99.90
22526;DHT22;11429;50.842;4.386;2023-06-10T01:01:59;23.20;99.90
22526;DHT22;11429;50.842;4.386;2023-06-10T01:04:24;23.10;99.90
22526;DHT22;11429;50.842;4.386;2023-06-10T01:07:10;22.90;99.90
22526;DHT22;11429;50.842;4.386;2023-06-10T01:12:43;23.10;99.90
22526;DHT22;11429;50.842;4.386;2023-06-10T01:15:17;23.00;99.90
22526;DHT22;11429;50.842;4.386;2023-06-10T01:17:56;23.00;99.90
22526;DHT22;11429;50.842;4.386;2023-06-10T01:20:24;23.00;99.90
22526;DHT22;11429;50.842;4.386;2023-06-10T01:22:53;22.90;99.90
22526;DHT22;11429;50.842;4.386;2023-06-10T01:25:23;22.90;99.90
22526;DHT22;11429;50.842;4.386;2023-06-10T01:28:10;23.00;99.90
22526;DHT22;11429;50.842;4.386;2023-06-10T01:33:25;22.70;99.90
22526;DHT22;11429;50.842;4.386;2023-06-10T01:35:53;22.70;99.90
22526;DHT22;11429;50.842;4.386;2023-06-10T01:38:19;22.70;99.90
22526;DHT22;11429;50.842;4.386;2023-06-10T01:40:47;22.70;99.90
22526;DHT22;11429;50.842;4.386;2023-06-10T01:43:13;22.90;99.90
22526;DHT22;11429;50.842;4.386;2023-06-10T01:45:39;22.80;99.90
22526;DHT22;11429;50.842;4.386;2023-06-10T01:48:05;22.80;99.90
22526;DHT22;11429;50.842;4.386;2023-06-10T01:50:30;22.90;99.90
22526;DHT22;11429;50.842;4.386;2023-06-10T01:52:57;22.90;99.90
22526;DHT22;11429;50.842;4.386;2023-06-10T01:55:23;22.90;99.90
22526;DHT22;11429;50.842;4.386;2023-06-10T01:57:49;22.70;99.90
22526;DHT22;11429;50.842;4.386;2023-06-10T02:00:15;22.90;99.90
22526;DHT22;11429;50.842;4.386;2023-06-10T02:02:44;22.90;99.90
22526;DHT22;11429;50.842;4.386;2023-06-10T02:05:09;22.80;99.90
22526;DHT22;11429;50.842;4.386;2023-06-10T02:07:35;23.00;99.90
22526;DHT22;11429;50.842;4.386;2023-06-10T02:10:01;22.90;99.90
22526;DHT22;11429;50.842;4.386;2023-06-10T02:12:26;22.70;99.90
22526;DHT22;11429;50.842;4.386;2023-06-10T02:14:52;22.50;99.90
22526;DHT22;11429;50.842;4.386;2023-06-10T02:17:18;22.50;99.90
22526;DHT22;11429;50.842;4.386;2023-06-10T02:19:44;22.50;99.90
22526;DHT22;11429;50.842;4.386;2023-06-10T02:22:21;22.50;99.90
22526;DHT22;11429;50.842;4.386;2023-06-10T02:24:47;22.50;99.90
22526;DHT22;11429;50.842;4.386;2023-06-10T02:27:13;22.50;99.90
22526;DHT22;11429;50.842;4.386;2023-06-10T02:29:38;22.50;99.90
22526;DHT22;11429;50.842;4.386;2023-06-10T02:32:04;22.50;99.90
22526;DHT22;11429;50.842;4.386;2023-06-10T02:34:30;22.30;99.90
22526;DHT22;11429;50.842;4.386;2023-06-10T02:36:56;22.30;99.90
22526;DHT22;11429;50.842;4.386;2023-06-10T03:10:19;22.10;99.90
22526;DHT22;11429;50.842;4.386;2023-06-10T03:12:45;22.00;99.90
22526;DHT22;11429;50.842;4.386;2023-06-10T03:15:10;22.10;99.90
22526;DHT22;11429;50.842;4.386;2023-06-10T03:17:36;22.00;99.90
22526;DHT22;11429;50.842;4.386;2023-06-10T03:20:02;21.90;99.90
22526;DHT22;11429;50.842;4.386;2023-06-10T03:22:31;21.90;99.90
22526;DHT22;11429;50.842;4.386;2023-06-10T03:24:56;21.90;99.90
22526;DHT22;11429;50.842;4.386;2023-06-10T03:27:22;21.80;99.90
22526;DHT22;11429;50.842;4.386;2023-06-10T03:29:48;21.80;99.90
22526;DHT22;11429;50.842;4.386;2023-06-10T03:32:14;21.70;99.90
22526;DHT22;11429;50.842;4.386;2023-06-10T03:34:40;21.60;99.90
22526;DHT22;11429;50.842;4.386;2023-06-10T03:37:06;21.60;99.90
22526;DHT22;11429;50.842;4.386;2023-06-10T03:39:32;21.70;99.90
22526;DHT22;11429;50.842;4.386;2023-06-10T03:41:58;21.70;99.90
22526;DHT22;11429;50.842;4.386;2023-06-10T03:44:24;21.70;99.90
22526;DHT22;11429;50.842;4.386;2023-06-10T03:46:51;21.40;99.90
22526;DHT22;11429;50.842;4.386;2023-06-10T03:49:17;21.30;99.90
22526;DHT22;11429;50.842;4.386;2023-06-10T03:51:43;21.30;99.90
22526;DHT22;11429;50.842;4.386;2023-06-10T03:54:09;21.30;99.90
22526;DHT22;11429;50.842;4.386;2023-06-10T03:56:35;21.30;99.90
22526;DHT22;11429;50.842;4.386;2023-06-10T03:59:01;21.40;99.90
22526;DHT22;11429;50.842;4.386;2023-06-10T04:01:27;21.50;99.90
22526;DHT22;11429;50.842;4.386;2023-06-10T04:03:53;21.30;99.90
22526;DHT22;11429;50.842;4.386;2023-06-10T04:06:20;21.50;99.90
22526;DHT22;11429;50.842;4.386;2023-06-10T04:08:48;21.70;99.90
22526;DHT22;11429;50.842;4.386;2023-06-10T04:11:14;21.70;99.90
22526;DHT22;11429;50.842;4.386;2023-06-10T04:13:39;21.70;99.90
22526;DHT22;11429;50.842;4.386;2023-06-10T04:16:05;21.70;99.90
22526;DHT22;11429;50.842;4.386;2023-06-10T04:18:31;21.80;99.90
22526;DHT22;11429;50.842;4.386;2023-06-10T04:20:56;21.90;99.90
22526;DHT22;11429;50.842;4.386;2023-06-10T04:23:22;21.80;99.90
22526;DHT22;11429;50.842;4.386;2023-06-10T04:25:48;21.60;99.90
22526;DHT22;11429;50.842;4.386;2023-06-10T04:28:14;21.60;99.90
22526;DHT22;11429;50.842;4.386;2023-06-10T04:30:39;21.50;99.90
22526;DHT22;11429;50.842;4.386;2023-06-10T04:33:07;21.40;99.90
22526;DHT22;11429;50.842;4.386;2023-06-10T04:35:34;21.50;99.90
22526;DHT22;11429;50.842;4.386;2023-06-10T04:38:00;21.50;99.90
22526;DHT22;11429;50.842;4.386;2023-06-10T04:40:28;21.50;99.90
22526;DHT22;11429;50.842;4.386;2023-06-10T04:42:54;21.40;99.90
22526;DHT22;11429;50.842;4.386;2023-06-10T04:45:19;21.40;99.90
22526;DHT22;11429;50.842;4.386;2023-06-10T04:47:45;21.50;99.90
22526;DHT22;11429;50.842;4.386;2023-06-10T04:50:10;21.50;99.90
22526;DHT22;11429;50.842;4.386;2023-06-10T04:52:36;21.50;99.90
22526;DHT22;11429;50.842;4.386;2023-06-10T04:55:02;21.50;99.90
22526;DHT22;11429;50.842;4.386;2023-06-10T04:57:28;21.50;99.90
22526;DHT22;11429;50.842;4.386;2023-06-10T04:59:53;21.70;99.90
22526;DHT22;11429;50.842;4.386;2023-06-10T05:02:19;22.00;99.90
22526;DHT22;11429;50.842;4.386;2023-06-10T05:04:45;22.80;99.90
22526;DHT22;11429;50.842;4.386;2023-06-10T05:07:11;23.90;99.90
22526;DHT22;11429;50.842;4.386;2023-06-10T05:09:37;25.40;99.90
22526;DHT22;11429;50.842;4.386;2023-06-10T05:12:04;26.10;99.90
22526;DHT22;11429;50.842;4.386;2023-06-10T05:14:30;26.60;99.40
22526;DHT22;11429;50.842;4.386;2023-06-10T05:16:56;26.70;99.30
22526;DHT22;11429;50.842;4.386;2023-06-10T05:19:22;26.90;99.10
22526;DHT22;11429;50.842;4.386;2023-06-10T05:21:48;27.80;98.40
22526;DHT22;11429;50.842;4.386;2023-06-10T05:24:13;28.50;97.50
22526;DHT22;11429;50.842;4.386;2023-06-10T05:26:39;29.20;96.20
22526;DHT22;11429;50.842;4.386;2023-06-10T05:29:07;29.70;95.30
22526;DHT22;11429;50.842;4.386;2023-06-10T05:31:33;29.30;95.30
22526;DHT22;11429;50.842;4.386;2023-06-10T05:33:58;28.90;95.90
22526;DHT22;11429;50.842;4.386;2023-06-10T05:36:24;30.30;94.70
22526;DHT22;11429;50.842;4.386;2023-06-10T05:38:53;31.20;93.40
22526;DHT22;11429;50.842;4.386;2023-06-10T05:41:18;31.20;93.00
22526;DHT22;11429;50.842;4.386;2023-06-10T05:43:44;31.00;93.10
22526;DHT22;11429;50.842;4.386;2023-06-10T05:46:10;31.10;93.20
22526;DHT22;11429;50.842;4.386;2023-06-10T05:48:36;31.50;93.10
22526;DHT22;11429;50.842;4.386;2023-06-10T05:51:01;31.80;92.60
22526;DHT22;11429;50.842;4.386;2023-06-10T05:53:27;31.50;92.50
22526;DHT22;11429;50.842;4.386;2023-06-10T05:55:52;32.10;92.40
22526;DHT22;11429;50.842;4.386;2023-06-10T05:58:22;32.50;91.80
22526;DHT22;11429;50.842;4.386;2023-06-10T06:00:48;32.10;91.50
22526;DHT22;11429;50.842;4.386;2023-06-10T06:03:14;32.80;91.20
22526;DHT22;11429;50.842;4.386;2023-06-10T06:05:39;32.70;91.20
22526;DHT22;11429;50.842;4.386;2023-06-10T06:08:05;32.90;91.30
22526;DHT22;11429;50.842;4.386;2023-06-10T06:10:31;33.20;90.90
22526;DHT22;11429;50.842;4.386;2023-06-10T06:12:57;34.00;90.10
22526;DHT22;11429;50.842;4.386;2023-06-10T06:15:22;34.70;89.00
22526;DHT22;11429;50.842;4.386;2023-06-10T06:17:48;34.40;88.40
22526;DHT22;11429;50.842;4.386;2023-06-10T06:20:14;33.60;90.00
22526;DHT22;11429;50.842;4.386;2023-06-10T06:22:40;32.50;90.70
22526;DHT22;11429;50.842;4.386;2023-06-10T06:25:06;33.30;90.10
22526;DHT22;11429;50.842;4.386;2023-06-10T06:27:31;34.20;90.10
22526;DHT22;11429;50.842;4.386;2023-06-10T06:29:57;33.50;90.00
22526;DHT22;11429;50.842;4.386;2023-06-10T06:32:23;34.80;88.60
22526;DHT22;11429;50.842;4.386;2023-06-10T06:34:51;35.50;86.70
22526;DHT22;11429;50.842;4.386;2023-06-10T06:37:21;35.30;86.40
22526;DHT22;11429;50.842;4.386;2023-06-10T06:39:48;35.00;86.50
22526;DHT22;11429;50.842;4.386;2023-06-10T06:42:14;34.60;87.50
22526;DHT22;11429;50.842;4.386;2023-06-10T06:44:39;35.00;87.20
22526;DHT22;11429;50.842;4.386;2023-06-10T06:47:05;35.30;85.80
22526;DHT22;11429;50.842;4.386;2023-06-10T06:49:31;34.90;86.50
22526;DHT22;11429;50.842;4.386;2023-06-10T06:51:57;35.20;85.70
22526;DHT22;11429;50.842;4.386;2023-06-10T06:54:22;34.80;86.70
22526;DHT22;11429;50.842;4.386;2023-06-10T06:56:48;36.00;84.60
22526;DHT22;11429;50.842;4.386;2023-06-10T06:59:14;35.20;85.60
22526;DHT22;11429;50.842;4.386;2023-06-10T07:01:40;35.80;84.90
22526;DHT22;11429;50.842;4.386;2023-06-10T07:04:05;35.80;84.00
22526;DHT22;11429;50.842;4.386;2023-06-10T07:06:31;36.20;84.70
22526;DHT22;11429;50.842;4.386;2023-06-10T07:08:57;34.80;84.20
22526;DHT22;11429;50.842;4.386;2023-06-10T07:11:23;32.30;90.10
22526;DHT22;11429;50.842;4.386;2023-06-10T07:13:48;34.40;87.90
22526;DHT22;11429;50.842;4.386;2023-06-10T07:16:14;35.60;85.10
22526;DHT22;11429;50.842;4.386;2023-06-10T07:18:40;36.80;82.50
22526;DHT22;11429;50.842;4.386;2023-06-10T07:21:06;35.90;82.60
22526;DHT22;11429;50.842;4.386;2023-06-10T07:23:31;35.00;84.60
22526;DHT22;11429;50.842;4.386;2023-06-10T07:25:57;35.60;84.90
22526;DHT22;11429;50.842;4.386;2023-06-10T07:28:23;36.80;83.00
22526;DHT22;11429;50.842;4.386;2023-06-10T07:30:48;37.10;81.50
22526;DHT22;11429;50.842;4.386;2023-06-10T07:33:14;38.00;79.40
22526;DHT22;11429;50.842;4.386;2023-06-10T07:35:39;38.10;79.90
22526;DHT22;11429;50.842;4.386;2023-06-10T07:38:05;37.70;80.00
22526;DHT22;11429;50.842;4.386;2023-06-10T07:40:31;34.50;84.70
22526;DHT22;11429;50.842;4.386;2023-06-10T07:42:56;34.30;86.30
22526;DHT22;11429;50.842;4.386;2023-06-10T07:45:22;36.00;82.10
22526;DHT22;11429;50.842;4.386;2023-06-10T07:47:48;38.30;80.00
22526;DHT22;11429;50.842;4.386;2023-06-10T07:50:13;38.60;78.20
22526;DHT22;11429;50.842;4.386;2023-06-10T07:52:39;38.90;78.70
22526;DHT22;11429;50.842;4.386;2023-06-10T07:55:05;36.60;80.10
22526;DHT22;11429;50.842;4.386;2023-06-10T07:57:31;37.10;80.40
22526;DHT22;11429;50.842;4.386;2023-06-10T08:00:00;38.40;77.90
22526;DHT22;11429;50.842;4.386;2023-06-10T08:02:27;38.10;77.40
22526;DHT22;11429;50.842;4.386;2023-06-10T08:04:53;38.00;78.00
22526;DHT22;11429;50.842;4.386;2023-06-10T08:07:19;36.50;79.80
22526;DHT22;11429;50.842;4.386;2023-06-10T08:09:44;37.50;78.90
22526;DHT22;11429;50.842;4.386;2023-06-10T08:12:10;37.90;77.90
22526;DHT22;11429;50.842;4.386;2023-06-10T08:14:36;37.40;76.70
22526;DHT22;11429;50.842;4.386;2023-06-10T08:17:03;35.70;81.10
22526;DHT22;11429;50.842;4.386;2023-06-10T08:19:30;37.60;79.20
22526;DHT22;11429;50.842;4.386;2023-06-10T08:21:56;36.50;78.60
22526;DHT22;11429;50.842;4.386;2023-06-10T08:24:22;36.40;80.80
22526;DHT22;11429;50.842;4.386;2023-06-10T08:26:47;38.30;77.20
22526;DHT22;11429;50.842;4.386;2023-06-10T08:29:13;40.20;74.90
22526;DHT22;11429;50.842;4.386;2023-06-10T08:31:43;38.90;76.30
22526;DHT22;11429;50.842;4.386;2023-06-10T08:34:09;39.50;74.10
22526;DHT22;11429;50.842;4.386;2023-06-10T08:36:35;40.00;73.10
22526;DHT22;11429;50.842;4.386;2023-06-10T08:39:01;39.70;72.90
22526;DHT22;11429;50.842;4.386;2023-06-10T08:41:28;39.80;72.90
22526;DHT22;11429;50.842;4.386;2023-06-10T08:44:22;39.20;73.60
22526;DHT22;11429;50.842;4.386;2023-06-10T08:46:51;38.10;75.70
22526;DHT22;11429;50.842;4.386;2023-06-10T08:49:21;37.90;75.50
22526;DHT22;11429;50.842;4.386;2023-06-10T08:51:57;37.30;76.40
22526;DHT22;11429;50.842;4.386;2023-06-10T08:54:28;37.90;73.90
22526;DHT22;11429;50.842;4.386;2023-06-10T08:57:01;37.80;75.10
22526;DHT22;11429;50.842;4.386;2023-06-10T08:59:33;38.00;74.50
22526;DHT22;11429;50.842;4.386;2023-06-10T09:02:00;38.00;74.70
22526;DHT22;11429;50.842;4.386;2023-06-10T09:04:29;38.30;74.30
22526;DHT22;11429;50.842;4.386;2023-06-10T09:06:57;37.20;75.50
22526;DHT22;11429;50.842;4.386;2023-06-10T09:09:29;36.40;76.10
22526;DHT22;11429;50.842;4.386;2023-06-10T09:11:58;37.60;75.50
22526;DHT22;11429;50.842;4.386;2023-06-10T09:14:24;37.40;76.30
22526;DHT22;11429;50.842;4.386;2023-06-10T09:16:49;36.20;77.70
22526;DHT22;11429;50.842;4.386;2023-06-10T09:19:18;36.10;77.70
22526;DHT22;11429;50.842;4.386;2023-06-10T09:21:46;36.20;77.70
22526;DHT22;11429;50.842;4.386;2023-06-10T09:24:12;37.80;75.90
22526;DHT22;11429;50.842;4.386;2023-06-10T09:26:38;39.10;74.70
22526;DHT22;11429;50.842;4.386;2023-06-10T09:29:07;39.10;72.20
22526;DHT22;11429;50.842;4.386;2023-06-10T09:31:35;38.30;73.10
22526;DHT22;11429;50.842;4.386;2023-06-10T09:34:08;37.60;74.20
22526;DHT22;11429;50.842;4.386;2023-06-10T09:36:36;37.60;74.40
22526;DHT22;11429;50.842;4.386;2023-06-10T09:39:02;38.60;74.10
22526;DHT22;11429;50.842;4.386;2023-06-10T09:41:35;38.70;72.40
22526;DHT22;11429;50.842;4.386;2023-06-10T09:44:01;37.20;75.80
22526;DHT22;11429;50.842;4.386;2023-06-10T09:46:34;37.50;75.30
22526;DHT22;11429;50.842;4.386;2023-06-10T09:48:59;38.10;74.20
22526;DHT22;11429;50.842;4.386;2023-06-10T09:51:28;38.60;73.70
22526;DHT22;11429;50.842;4.386;2023-06-10T09:53:54;39.70;71.60
22526;DHT22;11429;50.842;4.386;2023-06-10T09:56:20;39.20;72.10
22526;DHT22;11429;50.842;4.386;2023-06-10T09:58:49;38.90;71.20
22526;DHT22;11429;50.842;4.386;2023-06-10T10:01:18;38.50;71.90
22526;DHT22;11429;50.842;4.386;2023-06-10T10:03:49;38.40;72.80
22526;DHT22;11429;50.842;4.386;2023-06-10T10:06:17;36.80;74.10
22526;DHT22;11429;50.842;4.386;2023-06-10T10:09:03;36.80;74.10
22526;DHT22;11429;50.842;4.386;2023-06-10T10:11:34;38.10;72.20
22526;DHT22;11429;50.842;4.386;2023-06-10T10:14:00;38.40;70.80
22526;DHT22;11429;50.842;4.386;2023-06-10T10:16:43;38.30;71.00
22526;DHT22;11429;50.842;4.386;2023-06-10T10:19:33;37.00;72.60
22526;DHT22;11429;50.842;4.386;2023-06-10T10:22:07;38.20;70.80
22526;DHT22;11429;50.842;4.386;2023-06-10T10:24:36;38.30;70.10
22526;DHT22;11429;50.842;4.386;2023-06-10T10:27:28;37.50;70.90
22526;DHT22;11429;50.842;4.386;2023-06-10T10:30:06;37.40;71.40
22526;DHT22;11429;50.842;4.386;2023-06-10T10:32:43;37.60;71.00
22526;DHT22;11429;50.842;4.386;2023-06-10T10:50:58;38.40;68.20
22526;DHT22;11429;50.842;4.386;2023-06-10T10:53:33;36.70;71.10
22526;DHT22;11429;50.842;4.386;2023-06-10T10:56:06;37.40;67.80
22526;DHT22;11429;50.842;4.386;2023-06-10T11:01:49;37.50;69.40
22526;DHT22;11429;50.842;4.386;2023-06-10T11:04:21;36.20;68.90
22526;DHT22;11429;50.842;4.386;2023-06-10T11:17:18;36.40;70.50
22526;DHT22;11429;50.842;4.386;2023-06-10T11:19:46;35.70;70.50
22526;DHT22;11429;50.842;4.386;2023-06-10T11:22:17;36.10;71.10
22526;DHT22;11429;50.842;4.386;2023-06-10T11:27:22;36.60;67.40
22526;DHT22;11429;50.842;4.386;2023-06-10T11:32:34;34.90;69.60
22526;DHT22;11429;50.842;4.386;2023-06-10T11:35:03;35.00;69.40
22526;DHT22;11429;50.842;4.386;2023-06-10T11:37:29;35.10;68.80
22526;DHT22;11429;50.842;4.386;2023-06-10T11:39:56;34.40;69.10
22526;DHT22;11429;50.842;4.386;2023-06-10T11:42:22;35.00;69.50
22526;DHT22;11429;50.842;4.386;2023-06-10T11:44:52;35.60;68.70
22526;DHT22;11429;50.842;4.386;2023-06-10T11:47:19;35.10;71.30
22526;DHT22;11429;50.842;4.386;2023-06-10T11:49:46;34.90;71.50
22526;DHT22;11429;50.842;4.386;2023-06-10T11:52:27;34.40;72.90
22526;DHT22;11429;50.842;4.386;2023-06-10T11:54:54;35.00;70.40
22526;DHT22;11429;50.842;4.386;2023-06-10T12:02:27;34.50;70.50
22526;DHT22;11429;50.842;4.386;2023-06-10T12:04:53;33.50;72.10
22526;DHT22;11429;50.842;4.386;2023-06-10T12:07:19;33.80;71.00
22526;DHT22;11429;50.842;4.386;2023-06-10T12:09:45;33.50;71.40
22526;DHT22;11429;50.842;4.386;2023-06-10T12:12:15;33.90;72.50
22526;DHT22;11429;50.842;4.386;2023-06-10T12:14:50;34.30;71.60
22526;DHT22;11429;50.842;4.386;2023-06-10T12:19:56;34.20;71.50
22526;DHT22;11429;50.842;4.386;2023-06-10T12:22:23;33.30;72.40
22526;DHT22;11429;50.842;4.386;2023-06-10T12:25:00;33.20;73.00
22526;DHT22;11429;50.842;4.386;2023-06-10T12:27:27;33.20;72.80
22526;DHT22;11429;50.842;4.386;2023-06-10T12:29:56;33.20;73.10
22526;DHT22;11429;50.842;4.386;2023-06-10T12:35:05;33.20;73.20
22526;DHT22;11429;50.842;4.386;2023-06-10T12:37:31;33.20;75.90
22526;DHT22;11429;50.842;4.386;2023-06-10T12:40:05;33.20;76.20
22526;DHT22;11429;50.842;4.386;2023-06-10T12:42:32;33.50;74.70
22526;DHT22;11429;50.842;4.386;2023-06-10T12:45:01;33.30;74.70
22526;DHT22;11429;50.842;4.386;2023-06-10T12:47:35;32.90;75.10
22526;DHT22;11429;50.842;4.386;2023-06-10T12:50:02;32.70;73.60
22526;DHT22;11429;50.842;4.386;2023-06-10T12:52:28;32.70;74.00
22526;DHT22;11429;50.842;4.386;2023-06-10T12:54:54;32.70;75.10
22526;DHT22;11429;50.842;4.386;2023-06-10T12:57:22;32.80;75.60
22526;DHT22;11429;50.842;4.386;2023-06-10T12:59:48;32.60;75.40
22526;DHT22;11429;50.842;4.386;2023-06-10T13:15:14;32.20;77.30
22526;DHT22;11429;50.842;4.386;2023-06-10T14:06:45;31.50;77.60
22526;DHT22;11429;50.842;4.386;2023-06-10T14:09:13;31.70;76.30
22526;DHT22;11429;50.842;4.386;2023-06-10T14:11:38;31.30;75.90
22526;DHT22;11429;50.842;4.386;2023-06-10T14:14:04;31.30;75.60
22526;DHT22;11429;50.842;4.386;2023-06-10T14:16:30;31.30;77.20
22526;DHT22;11429;50.842;4.386;2023-06-10T14:18:56;31.10;75.60
22526;DHT22;11429;50.842;4.386;2023-06-10T14:21:22;31.00;76.60
22526;DHT22;11429;50.842;4.386;2023-06-10T14:23:48;31.50;78.00
22526;DHT22;11429;50.842;4.386;2023-06-10T14:26:14;31.30;75.50
22526;DHT22;11429;50.842;4.386;2023-06-10T14:28:40;31.20;76.80
22526;DHT22;11429;50.842;4.386;2023-06-10T14:31:06;31.40;77.30
22526;DHT22;11429;50.842;4.386;2023-06-10T14:33:33;31.70;76.40
22526;DHT22;11429;50.842;4.386;2023-06-10T14:35:58;31.60;76.40
22526;DHT22;11429;50.842;4.386;2023-06-10T14:38:24;31.60;77.60
22526;DHT22;11429;50.842;4.386;2023-06-10T14:40:50;31.30;76.50
22526;DHT22;11429;50.842;4.386;2023-06-10T14:43:15;31.20;77.50
22526;DHT22;11429;50.842;4.386;2023-06-10T14:45:41;31.10;75.70
22526;DHT22;11429;50.842;4.386;2023-06-10T14:48:08;31.20;76.10
22526;DHT22;11429;50.842;4.386;2023-06-10T14:50:37;31.30;75.80
22526;DHT22;11429;50.842;4.386;2023-06-10T14:53:03;31.30;76.30
22526;DHT22;11429;50.842;4.386;2023-06-10T14:55:28;31.20;76.00
22526;DHT22;11429;50.842;4.386;2023-06-10T14:57:54;31.20;76.80
22526;DHT22;11429;50.842;4.386;2023-06-10T15:00:22;31.10;76.40
22526;DHT22;11429;50.842;4.386;2023-06-10T15:02:49;31.00;76.80
22526;DHT22;11429;50.842;4.386;2023-06-10T15:05:15;31.20;76.10
22526;DHT22;11429;50.842;4.386;2023-06-10T15:07:42;31.20;76.30
22526;DHT22;11429;50.842;4.386;2023-06-10T15:10:09;31.50;77.00
22526;DHT22;11429;50.842;4.386;2023-06-10T15:12:35;31.50;76.20
22526;DHT22;11429;50.842;4.386;2023-06-10T15:15:01;31.00;76.40
22526;DHT22;11429;50.842;4.386;2023-06-10T15:17:27;31.00;76.60
22526;DHT22;11429;50.842;4.386;2023-06-10T15:19:53;30.70;76.10
22526;DHT22;11429;50.842;4.386;2023-06-10T15:22:18;30.60;77.90
22526;DHT22;11429;50.842;4.386;2023-06-10T15:24:44;30.70;77.70
22526;DHT22;11429;50.842;4.386;2023-06-10T15:27:09;30.50;78.60
22526;DHT22;11429;50.842;4.386;2023-06-10T15:29:36;30.70;77.60
22526;DHT22;11429;50.842;4.386;2023-06-10T15:32:01;30.80;76.50
22526;DHT22;11429;50.842;4.386;2023-06-10T15:34:27;30.80;76.60
22526;DHT22;11429;50.842;4.386;2023-06-10T15:36:53;30.80;77.70
22526;DHT22;11429;50.842;4.386;2023-06-10T15:39:18;30.70;77.40
22526;DHT22;11429;50.842;4.386;2023-06-10T15:41:44;30.70;77.30
22526;DHT22;11429;50.842;4.386;2023-06-10T15:44:10;30.90;77.00
22526;DHT22;11429;50.842;4.386;2023-06-10T15:46:36;31.00;76.40
22526;DHT22;11429;50.842;4.386;2023-06-10T15:49:02;30.90;76.80
22526;DHT22;11429;50.842;4.386;2023-06-10T15:51:28;30.90;77.50
22526;DHT22;11429;50.842;4.386;2023-06-10T15:53:54;31.00;77.50
22526;DHT22;11429;50.842;4.386;2023-06-10T15:56:20;30.90;77.30
22526;DHT22;11429;50.842;4.386;2023-06-10T15:58:46;30.90;77.30
22526;DHT22;11429;50.842;4.386;2023-06-10T16:01:12;30.70;77.70
22526;DHT22;11429;50.842;4.386;2023-06-10T16:03:40;30.60;78.30
22526;DHT22;11429;50.842;4.386;2023-06-10T16:06:06;30.70;77.80
22526;DHT22;11429;50.842;4.386;2023-06-10T16:08:32;30.50;78.00
22526;DHT22;11429;50.842;4.386;2023-06-10T16:10:58;30.60;78.30
22526;DHT22;11429;50.842;4.386;2023-06-10T16:13:23;30.70;78.90
22526;DHT22;11429;50.842;4.386;2023-06-10T16:15:49;30.80;77.40
22526;DHT22;11429;50.842;4.386;2023-06-10T16:18:15;30.90;77.60
22526;DHT22;11429;50.842;4.386;2023-06-10T16:20:41;31.00;78.70
22526;DHT22;11429;50.842;4.386;2023-06-10T16:23:06;31.20;78.00
22526;DHT22;11429;50.842;4.386;2023-06-10T16:25:32;30.90;78.80
22526;DHT22;11429;50.842;4.386;2023-06-10T16:28:00;31.10;78.80
22526;DHT22;11429;50.842;4.386;2023-06-10T16:30:26;30.90;77.90
22526;DHT22;11429;50.842;4.386;2023-06-10T16:32:52;30.70;77.60
22526;DHT22;11429;50.842;4.386;2023-06-10T16:35:17;30.60;78.70
22526;DHT22;11429;50.842;4.386;2023-06-10T16:37:43;30.80;78.30
22526;DHT22;11429;50.842;4.386;2023-06-10T16:40:10;30.80;78.10
22526;DHT22;11429;50.842;4.386;2023-06-10T16:42:36;30.80;78.20
22526;DHT22;11429;50.842;4.386;2023-06-10T16:45:01;31.00;78.60
22526;DHT22;11429;50.842;4.386;2023-06-10T16:47:28;31.00;78.80
22526;DHT22;11429;50.842;4.386;2023-06-10T16:49:53;30.90;78.50
22526;DHT22;11429;50.842;4.386;2023-06-10T16:52:19;30.70;77.50
22526;DHT22;11429;50.842;4.386;2023-06-10T16:54:45;30.70;78.00
22526;DHT22;11429;50.842;4.386;2023-06-10T16:57:11;30.90;77.90
22526;DHT22;11429;50.842;4.386;2023-06-10T16:59:36;31.10;77.90
22526;DHT22;11429;50.842;4.386;2023-06-10T17:02:03;31.00;76.80
22526;DHT22;11429;50.842;4.386;2023-06-10T17:04:29;30.90;77.90
22526;DHT22;11429;50.842;4.386;2023-06-10T17:06:54;30.70;77.50
22526;DHT22;11429;50.842;4.386;2023-06-10T17:09:20;30.70;78.90
22526;DHT22;11429;50.842;4.386;2023-06-10T17:11:46;30.80;77.30
22526;DHT22;11429;50.842;4.386;2023-06-10T17:14:12;30.80;77.40
22526;DHT22;11429;50.842;4.386;2023-06-10T17:16:37;30.70;77.50
22526;DHT22;11429;50.842;4.386;2023-06-10T17:19:03;30.70;77.10
22526;DHT22;11429;50.842;4.386;2023-06-10T17:21:29;30.70;77.70
22526;DHT22;11429;50.842;4.386;2023-06-10T17:23:55;30.60;77.50
22526;DHT22;11429;50.842;4.386;2023-06-10T17:26:20;30.50;76.90
22526;DHT22;11429;50.842;4.386;2023-06-10T17:28:47;30.30;79.40
22526;DHT22;11429;50.842;4.386;2023-06-10T17:31:13;30.40;78.80
22526;DHT22;11429;50.842;4.386;2023-06-10T17:33:38;30.60;76.90
22526;DHT22;11429;50.842;4.386;2023-06-10T17:36:04;30.30;77.70
22526;DHT22;11429;50.842;4.386;2023-06-10T17:38:30;30.40;77.90
22526;DHT22;11429;50.842;4.386;2023-06-10T17:40:56;30.30;78.40
22526;DHT22;11429;50.842;4.386;2023-06-10T17:43:22;30.40;78.00
22526;DHT22;11429;50.842;4.386;2023-06-10T17:45:49;30.60;78.10
22526;DHT22;11429;50.842;4.386;2023-06-10T17:48:18;30.40;77.80
22526;DHT22;11429;50.842;4.386;2023-06-10T17:50:44;30.50;78.30
22526;DHT22;11429;50.842;4.386;2023-06-10T17:53:09;30.60;78.30